Time;durP1;ratioP1;P1;durP2;ratioP2;P2;SDS_P1;SDS_P2;PMS_P1;PMS_P2;Temp;Humidity;BMP_temperature;BMP_pressure;BME280_temperature;BME280_humidity;BME280_pressure;Samples;Min_cycle;Max_cycle;Signal;HPM_P1;HPM_P2
2023/05/23 14:08:47;;;;;;;12.82;8.93;;;;;;;24.73;50.00;95996.06;2127137;27;20375;-91
2023/05/23 14:09:48;;;;;;;10.13;8.27;;;;;;;24.70;50.03;95984.94;2092316;28;20045;-93
2023/05/23 14:10:50;;;;;;;15.18;8.57;;;;;;;24.85;50.09;96002.75;2093888;28;20072;-91
2023/05/23 14:11:57;;;;;;;10.70;8.95;;;;;;;24.87;49.97;96002.59;2085254;28;20050;-89
2023/05/23 14:22:58;;;;;;;13.50;10.57;;;;;;;23.94;43.54;95966.09;2107244;22;20418;-60
2023/05/23 14:24:00;;;;;;;14.98;11.40;;;;;;;23.26;43.63;95984.41;2103860;28;20452;-60
2023/05/23 14:25:01;;;;;;;14.82;11.30;;;;;;;22.97;46.36;95971.38;2094694;28;20052;-59
2023/05/23 14:26:02;;;;;;;12.73;11.38;;;;;;;23.77;43.50;95977.59;2095380;28;20115;-61
2023/05/23 14:27:03;;;;;;;16.25;11.23;;;;;;;24.80;42.14;95975.84;2104776;28;20047;-62
2023/05/23 14:28:04;;;;;;;13.82;10.32;;;;;;;25.65;39.34;95972.19;2103771;28;20071;-61
2023/05/23 14:29:06;;;;;;;14.68;10.57;;;;;;;26.28;38.06;95968.81;2104115;28;20067;-60
2023/05/23 14:30:09;;;;;;;11.95;10.43;;;;;;;25.98;38.66;95973.03;2104834;28;20040;-62
2023/05/23 14:31:10;;;;;;;16.30;10.57;;;;;;;25.53;38.91;95964.56;2104860;28;20040;-61
2023/05/23 14:32:11;;;;;;;14.52;10.70;;;;;;;24.87;41.14;95976.03;2105083;28;20051;-61
2023/05/23 14:33:13;;;;;;;14.35;10.88;;;;;;;25.19;40.70;95977.16;2095947;28;20052;-61
2023/05/23 14:34:15;;;;;;;19.42;11.07;;;;;;;26.67;37.83;95972.53;2095474;28;20075;-62
2023/05/23 14:35:16;;;;;;;12.18;9.55;;;;;;;27.23;37.77;95970.59;2103397;28;20072;-62
2023/05/23 14:36:20;;;;;;;14.43;10.85;;;;;;;27.13;37.41;95978.81;2103825;28;20048;-61
2023/05/23 14:37:21;;;;;;;14.38;11.55;;;;;;;26.42;36.97;95972.59;2104791;28;20052;-65
2023/05/23 14:38:22;;;;;;;12.27;9.68;;;;;;;26.14;38.57;95981.00;2095706;28;20168;-70
2023/05/23 14:39:24;;;;;;;15.95;10.88;;;;;;;26.31;37.95;95970.31;2095689;28;20067;-61
2023/05/23 14:40:25;;;;;;;14.02;10.35;;;;;;;25.90;37.58;95981.00;2104172;28;20048;-61
2023/05/23 14:41:27;;;;;;;13.63;10.70;;;;;;;25.29;39.56;95970.69;2104713;28;20067;-62
2023/05/23 14:42:28;;;;;;;11.57;10.38;;;;;;;24.60;40.91;95980.59;2103965;28;20630;-61
2023/05/23 14:43:30;;;;;;;11.60;9.65;;;;;;;24.32;41.82;95979.09;2103735;28;20051;-60
2023/05/23 14:44:31;;;;;;;12.70;10.30;;;;;;;24.80;39.95;95969.69;2104456;28;20055;-59
2023/05/23 14:45:32;;;;;;;16.83;10.00;;;;;;;26.33;37.42;95978.94;2095129;28;20056;-60
2023/05/23 14:46:33;;;;;;;12.27;10.30;;;;;;;27.46;35.68;95976.78;2094726;28;20132;-59
2023/05/23 14:47:36;;;;;;;13.93;10.27;;;;;;;28.34;33.27;95972.69;2104310;28;20048;-59
2023/05/23 14:48:37;;;;;;;13.85;9.68;;;;;;;29.21;32.35;95968.47;2103863;28;20060;-60
2023/05/23 14:49:38;;;;;;;13.90;8.88;;;;;;;30.26;30.82;95962.47;2103308;28;20051;-59
2023/05/23 14:50:39;;;;;;;12.05;8.82;;;;;;;30.21;30.61;95983.63;2103883;28;20471;-59
2023/05/23 14:51:40;;;;;;;11.00;9.52;;;;;;;29.90;30.17;95976.78;2103207;28;20060;-60
2023/05/23 14:52:41;;;;;;;14.82;9.20;;;;;;;29.97;30.86;95979.53;2104297;28;20102;-58
2023/05/23 14:53:42;;;;;;;11.80;9.23;;;;;;;30.90;29.45;95972.13;2104848;28;20055;-60
2023/05/23 14:54:43;;;;;;;11.85;9.38;;;;;;;31.12;28.32;95985.41;2103828;28;20376;-61
2023/05/23 14:55:44;;;;;;;11.65;9.48;;;;;;;29.64;30.77;95980.06;2104823;28;20048;-60
2023/05/23 14:56:46;;;;;;;13.38;9.77;;;;;;;28.02;31.93;95999.72;2104597;28;20048;-61
2023/05/23 14:57:47;;;;;;;11.10;9.77;;;;;;;25.97;35.08;95990.00;2104623;28;20476;-61
2023/05/23 14:58:48;;;;;;;10.63;9.25;;;;;;;25.22;36.67;95990.94;2104470;28;20059;-61
2023/05/23 14:59:49;;;;;;;15.23;10.20;;;;;;;25.07;38.41;95998.69;2104898;28;20051;-61
2023/05/23 15:00:51;;;;;;;12.45;9.57;;;;;;;25.86;35.08;95993.00;2104625;28;20048;-60
2023/05/23 15:01:52;;;;;;;11.48;8.98;;;;;;;26.36;34.96;95994.59;2104722;28;20044;-61
2023/05/23 15:02:53;;;;;;;12.38;9.57;;;;;;;27.06;34.77;95992.00;2104905;28;20088;-59
2023/05/23 15:03:54;;;;;;;10.27;8.68;;;;;;;27.81;32.52;95993.22;2104669;28;20051;-60
2023/05/23 15:04:56;;;;;;;11.88;9.38;;;;;;;29.20;31.66;95997.06;2095042;28;20040;-60
2023/05/23 15:05:57;;;;;;;10.40;8.57;;;;;;;29.56;29.91;95995.38;2095412;28;20056;-60
2023/05/23 15:06:58;;;;;;;9.38;8.48;;;;;;;29.72;29.38;95981.75;2104321;28;20052;-61
2023/05/23 15:07:59;;;;;;;9.90;8.57;;;;;;;29.74;29.28;95994.97;2104167;28;20070;-60
2023/05/23 15:09:01;;;;;;;10.68;7.60;;;;;;;30.42;28.97;95993.47;2103240;28;20052;-59
2023/05/23 15:10:02;;;;;;;8.60;7.80;;;;;;;30.72;27.54;95982.50;2102725;28;20036;-60
2023/05/23 15:11:03;;;;;;;11.07;8.23;;;;;;;31.01;27.02;95992.16;2103013;28;20040;-61
2023/05/23 15:12:06;;;;;;;9.85;7.63;;;;;;;31.98;26.43;95996.34;2103987;28;20075;-60
2023/05/23 15:13:07;;;;;;;9.23;7.65;;;;;;;31.40;25.65;95991.47;2102784;28;20048;-61
2023/05/23 15:14:08;;;;;;;9.55;8.10;;;;;;;31.35;26.33;95993.06;2103124;28;20409;-61
2023/05/23 15:15:10;;;;;;;9.02;7.88;;;;;;;31.21;28.06;95990.34;2103487;28;20048;-61
2023/05/23 15:16:11;;;;;;;10.98;7.60;;;;;;;30.46;28.55;95992.03;2103593;28;20554;-61
2023/05/23 15:17:18;;;;;;;10.18;7.88;;;;;;;30.43;28.09;95987.09;2104151;28;20040;-61
2023/05/23 15:18:19;;;;;;;10.63;6.88;;;;;;;30.22;28.83;95995.16;2104576;28;20040;-60
2023/05/23 15:19:21;;;;;;;9.23;7.22;;;;;;;28.89;29.97;95991.09;2104485;28;20040;-60
2023/05/23 15:20:22;;;;;;;9.50;7.40;;;;;;;28.04;31.88;96003.00;2095713;28;20546;-60
2023/05/23 15:21:23;;;;;;;9.05;7.30;;;;;;;27.14;33.73;95993.78;2095459;28;20044;-60
2023/05/23 15:22:24;;;;;;;15.02;7.40;;;;;;;26.50;33.77;95980.56;2104354;28;20044;-60
2023/05/23 15:23:25;;;;;;;7.68;6.75;;;;;;;26.00;35.66;96000.28;2103460;28;20456;-60
2023/05/23 15:24:26;;;;;;;9.45;7.00;;;;;;;24.87;37.77;95998.13;2094598;28;20048;-60
2023/05/23 15:25:27;;;;;;;9.95;7.05;;;;;;;24.37;38.58;96006.81;2095116;28;20073;-60
2023/05/23 15:26:29;;;;;;;9.48;7.47;;;;;;;23.87;38.71;96002.19;2104391;28;20458;-61
2023/05/23 15:27:30;;;;;;;8.02;7.13;;;;;;;23.76;39.73;96003.28;2104358;28;20048;-60
2023/05/23 15:28:31;;;;;;;10.27;6.75;;;;;;;23.21;40.33;96007.88;2104556;28;20055;-60
2023/05/23 15:29:34;;;;;;;8.20;6.60;;;;;;;23.07;41.57;96006.59;2104492;28;20388;-60
2023/05/23 15:30:35;;;;;;;11.18;6.53;;;;;;;23.14;40.26;96006.81;2094932;28;20362;-60
2023/05/23 15:31:36;;;;;;;8.88;6.53;;;;;;;23.48;40.51;96006.97;2095357;28;20072;-60
2023/05/23 15:32:37;;;;;;;9.25;6.75;;;;;;;24.56;38.90;96007.59;2104475;28;20048;-60
2023/05/23 15:33:39;;;;;;;7.90;5.90;;;;;;;25.01;37.59;96011.75;2102235;28;20103;-60
2023/05/23 15:34:40;;;;;;;8.57;5.70;;;;;;;24.26;37.25;95993.81;2098272;28;20408;-60
2023/05/23 15:35:41;;;;;;;7.35;6.07;;;;;;;23.56;39.88;95994.63;2098587;28;20036;-61
2023/05/23 15:36:42;;;;;;;9.02;6.22;;;;;;;23.46;39.55;96014.22;2098656;28;20060;-60
2023/05/23 15:37:44;;;;;;;14.15;6.20;;;;;;;22.92;41.00;96008.84;2098836;28;20484;-60
2023/05/23 15:38:45;;;;;;;8.40;5.45;;;;;;;22.45;41.68;96011.56;2098087;28;20367;-60
2023/05/23 15:39:47;;;;;;;11.73;5.35;;;;;;;21.73;44.70;96013.84;2097713;28;20051;-60
2023/05/23 15:40:51;;;;;;;6.90;6.00;;;;;;;21.41;45.23;96005.34;2096956;28;20044;-60
2023/05/23 15:41:52;;;;;;;7.13;5.15;;;;;;;21.49;44.71;96008.13;2097799;28;20047;-60
2023/05/23 15:42:53;;;;;;;8.88;5.32;;;;;;;21.32;45.88;96001.69;2097869;28;20029;-60
2023/05/23 15:43:54;;;;;;;7.80;5.20;;;;;;;21.29;44.80;96013.38;2098050;28;20039;-60
2023/05/23 15:44:55;;;;;;;6.57;5.60;;;;;;;21.13;45.54;96011.28;2097848;28;20073;-61
2023/05/23 15:45:57;;;;;;;7.43;5.32;;;;;;;20.85;46.29;95998.84;2089008;28;20377;-61
2023/05/23 15:46:58;;;;;;;8.68;5.35;;;;;;;20.84;46.71;96005.94;2089216;28;20041;-61
2023/05/23 15:47:59;;;;;;;6.95;5.03;;;;;;;20.55;47.26;96010.28;2098071;28;20048;-60
2023/05/23 15:49:00;;;;;;;7.05;5.18;;;;;;;20.31;48.62;96011.41;2098111;28;20452;-60
2023/05/23 15:50:01;;;;;;;7.82;5.10;;;;;;;20.22;48.59;96007.78;2098044;28;20040;-61
2023/05/23 15:51:02;;;;;;;6.82;4.82;;;;;;;20.05;47.98;96011.84;2097915;28;20032;-61
2023/05/23 15:52:03;;;;;;;7.28;5.05;;;;;;;20.15;47.91;96005.78;2098012;28;20037;-61
2023/05/23 15:53:05;;;;;;;5.82;4.82;;;;;;;19.84;49.00;96018.94;2097775;28;20040;-61
2023/05/23 15:54:06;;;;;;;12.45;5.15;;;;;;;19.94;48.59;96008.44;2097441;28;20415;-62
2023/05/23 15:55:07;;;;;;;10.75;4.90;;;;;;;20.05;48.47;96025.03;2097905;28;20033;-62
2023/05/23 15:56:08;;;;;;;8.02;5.03;;;;;;;20.22;47.73;96006.94;2097406;28;20059;-62
2023/05/23 15:57:09;;;;;;;7.00;4.78;;;;;;;20.72;46.93;96008.84;2097782;28;20049;-61
2023/05/23 15:58:10;;;;;;;8.35;4.55;;;;;;;21.33;45.78;96011.28;2097872;28;20048;-62
2023/05/23 15:59:11;;;;;;;5.47;4.47;;;;;;;21.83;45.33;96015.63;2097149;28;20492;-62
2023/05/23 16:00:13;;;;;;;7.20;4.78;;;;;;;22.12;44.74;96018.22;2097924;28;20041;-62
2023/05/23 16:01:14;;;;;;;8.85;5.60;;;;;;;21.71;45.04;96007.84;2088858;28;20052;-60
2023/05/23 16:02:17;;;;;;;5.55;4.22;;;;;;;21.17;45.84;96013.63;2088860;28;20041;-61
2023/05/23 16:03:18;;;;;;;7.55;4.75;;;;;;;20.56;46.92;96022.53;2097857;28;20048;-62
2023/05/23 16:04:19;;;;;;;6.53;4.70;;;;;;;20.38;47.40;96011.72;2097794;28;20527;-61
2023/05/23 16:05:20;;;;;;;6.97;4.05;;;;;;;19.89;48.29;96026.44;2098029;28;20044;-61
2023/05/23 16:06:22;;;;;;;5.85;4.57;;;;;;;19.77;49.95;96021.22;2097959;28;20045;-61
2023/05/23 16:07:23;;;;;;;7.78;4.25;;;;;;;19.67;49.29;96022.13;2097866;28;20040;-61
2023/05/23 16:08:24;;;;;;;7.68;4.30;;;;;;;19.65;50.43;96029.31;2097852;28;20052;-61
2023/05/23 16:09:25;;;;;;;8.77;4.50;;;;;;;19.65;49.79;96021.41;2098871;28;20455;-61
2023/05/23 16:10:27;;;;;;;5.63;4.22;;;;;;;19.63;48.88;96016.25;2098655;28;20040;-61
2023/05/23 16:11:28;;;;;;;5.00;4.10;;;;;;;19.47;49.17;96016.69;2098684;28;20048;-61
2023/05/23 16:12:29;;;;;;;5.97;3.90;;;;;;;19.30;49.32;96038.28;2098759;28;20040;-61
2023/05/23 16:13:30;;;;;;;6.00;4.10;;;;;;;19.26;48.95;96034.25;2099038;28;20079;-61
2023/05/23 16:14:31;;;;;;;5.70;4.55;;;;;;;19.23;48.45;96027.44;2098754;28;20059;-61
2023/05/23 16:15:33;;;;;;;5.90;3.92;;;;;;;19.12;48.96;96030.09;2098858;28;20051;-61
2023/05/23 16:16:34;;;;;;;5.50;4.20;;;;;;;18.96;48.78;96033.13;2097956;28;20522;-61
2023/05/23 16:17:35;;;;;;;6.70;4.40;;;;;;;18.88;48.65;96039.00;2098838;28;20040;-61
2023/05/23 16:18:36;;;;;;;6.82;3.90;;;;;;;18.95;48.85;96037.56;2098674;28;20048;-62
2023/05/23 16:19:37;;;;;;;8.20;3.80;;;;;;;19.07;48.04;96037.53;2098067;28;20444;-62
2023/05/23 16:20:38;;;;;;;8.25;3.83;;;;;;;19.12;48.33;96036.19;2098736;28;20044;-61
2023/05/23 16:21:39;;;;;;;4.90;4.05;;;;;;;19.34;48.81;96031.81;2098065;28;20082;-60
2023/05/23 16:22:40;;;;;;;4.47;3.85;;;;;;;19.47;47.01;96047.47;2098679;28;20135;-60
2023/05/23 16:23:41;;;;;;;4.95;3.60;;;;;;;19.32;47.20;96042.47;2098827;28;20049;-61
2023/05/23 16:24:42;;;;;;;5.53;4.00;;;;;;;19.50;46.95;96040.13;2098412;28;20403;-61
2023/05/23 16:25:44;;;;;;;4.45;3.20;;;;;;;19.28;46.88;96043.69;2098803;28;20040;-60
2023/05/23 16:26:45;;;;;;;5.72;3.85;;;;;;;19.28;46.25;96041.06;2098586;28;20044;-62
2023/05/23 16:27:46;;;;;;;6.50;3.33;;;;;;;19.11;47.30;96024.00;2098052;28;20064;-60
2023/05/23 16:28:47;;;;;;;4.10;3.33;;;;;;;19.13;46.56;96035.22;2098659;28;20045;-61
2023/05/23 16:29:48;;;;;;;6.13;3.78;;;;;;;18.87;46.74;96011.03;2098746;28;20396;-60
2023/05/23 16:30:49;;;;;;;4.03;3.42;;;;;;;19.15;47.57;96030.69;2098618;28;20044;-61
2023/05/23 16:31:50;;;;;;;6.55;3.78;;;;;;;19.29;46.57;96026.09;2098823;28;20048;-61
2023/05/23 16:32:51;;;;;;;5.55;3.50;;;;;;;19.45;45.67;96033.56;2098954;28;20096;-62
2023/05/23 16:33:52;;;;;;;4.45;3.15;;;;;;;19.73;45.91;96019.84;2098611;28;20048;-61
2023/05/23 16:34:53;;;;;;;6.07;3.03;;;;;;;19.99;45.24;96037.88;2098072;28;20468;-63
2023/05/23 16:35:55;;;;;;;5.88;3.25;;;;;;;19.76;46.07;96031.91;2098556;28;20040;-60
2023/05/23 16:36:56;;;;;;;5.18;3.00;;;;;;;19.50;46.17;96031.41;2098556;28;20040;-60
2023/05/23 16:37:57;;;;;;;5.15;3.03;;;;;;;19.28;47.26;96027.06;2098648;28;20491;-60
2023/05/23 16:38:58;;;;;;;4.88;3.05;;;;;;;18.97;47.25;96013.75;2098367;28;20043;-61
2023/05/23 16:39:59;;;;;;;5.50;3.00;;;;;;;18.98;48.03;96033.00;2098137;28;20408;-60
2023/05/23 16:41:00;;;;;;;5.32;2.83;;;;;;;18.96;48.55;96033.13;2098467;28;20059;-61
2023/05/23 16:42:01;;;;;;;6.03;2.40;;;;;;;18.88;47.68;96027.66;2098579;28;20052;-60
2023/05/23 16:43:03;;;;;;;4.68;3.00;;;;;;;19.03;47.83;96029.06;2098383;28;20037;-60
2023/05/23 16:44:04;;;;;;;3.95;2.75;;;;;;;19.06;48.23;96031.44;2098612;28;20472;-61
2023/05/23 16:45:06;;;;;;;3.35;2.63;;;;;;;18.83;47.34;96014.03;2098309;28;20093;-60
2023/05/23 16:46:09;;;;;;;5.88;2.30;;;;;;;18.78;46.54;96030.16;2088902;28;20063;-60
2023/05/23 16:47:10;;;;;;;3.25;2.55;;;;;;;18.85;47.46;96026.09;2089921;28;20139;-62
2023/05/23 16:48:11;;;;;;;5.95;2.50;;;;;;;18.93;47.31;96038.66;2098531;28;20055;-61
2023/05/23 16:49:12;;;;;;;3.33;2.47;;;;;;;18.95;48.21;96028.81;2098232;28;20079;-61
2023/05/23 16:50:13;;;;;;;4.60;2.53;;;;;;;18.93;48.16;96036.00;2098550;28;20063;-61
2023/05/23 16:51:14;;;;;;;4.15;2.28;;;;;;;18.86;47.07;96033.03;2098344;28;20047;-61
2023/05/23 16:52:17;;;;;;;6.28;2.70;;;;;;;18.73;47.52;96030.50;2098500;28;20044;-61
2023/05/23 16:53:18;;;;;;;5.30;2.38;;;;;;;18.70;47.69;96038.63;2088764;28;20551;-61
2023/05/23 16:54:19;;;;;;;4.13;2.38;;;;;;;18.62;47.51;96046.28;2089371;28;20040;-60
2023/05/23 16:55:20;;;;;;;3.53;2.80;;;;;;;18.61;47.72;96026.22;2098360;28;20067;-61
2023/05/23 16:56:21;;;;;;;4.18;2.72;;;;;;;18.64;48.08;96028.59;2098409;28;20051;-61
2023/05/23 16:57:23;;;;;;;3.42;2.60;;;;;;;18.71;48.28;96027.16;2098540;28;20055;-61
2023/05/23 16:58:24;;;;;;;3.88;2.40;;;;;;;18.67;47.88;96033.63;2098432;28;20067;-61
2023/05/23 16:59:25;;;;;;;3.03;2.40;;;;;;;18.63;47.40;96032.19;2098570;28;20052;-61
2023/05/23 17:00:26;;;;;;;4.15;2.30;;;;;;;18.71;47.65;96037.69;2097723;28;20060;-61
2023/05/23 17:01:28;;;;;;;3.35;2.30;;;;;;;18.77;47.94;96032.94;2097720;28;20512;-62
2023/05/23 17:02:29;;;;;;;4.38;2.60;;;;;;;19.15;47.93;96045.66;2089335;28;20056;-70
2023/05/23 17:03:30;;;;;;;7.65;2.60;;;;;;;19.17;47.57;96046.38;2081280;28;20052;-70
2023/05/23 17:04:31;;;;;;;4.10;2.30;;;;;;;19.29;47.08;96047.16;2089439;28;20401;-70
2023/05/23 17:05:32;;;;;;;5.28;2.63;;;;;;;19.06;47.53;96038.47;2098378;28;20040;-71
2023/05/23 17:06:34;;;;;;;4.68;2.22;;;;;;;19.10;48.13;96042.53;2080889;28;20057;-70
2023/05/23 17:07:35;;;;;;;4.10;2.50;;;;;;;19.05;48.29;96048.16;2081336;28;20068;-70
2023/05/23 17:08:36;;;;;;;4.15;2.42;;;;;;;18.77;47.93;96043.47;2098165;28;20159;-69
2023/05/23 17:09:37;;;;;;;3.53;2.58;;;;;;;18.68;48.66;96040.56;2098314;28;20048;-72
2023/05/23 17:10:39;;;;;;;3.45;2.58;;;;;;;18.69;48.25;96051.91;2098476;28;20384;-70
2023/05/23 17:11:40;;;;;;;4.97;2.53;;;;;;;18.65;48.46;96046.03;2089279;28;20461;-71
2023/05/23 17:12:41;;;;;;;4.18;2.70;;;;;;;18.48;49.15;96052.63;2089148;28;20073;-71
2023/05/23 17:13:42;;;;;;;3.63;2.60;;;;;;;18.34;49.57;96039.72;2098453;28;20055;-72
2023/05/23 17:14:44;;;;;;;4.43;2.60;;;;;;;18.19;50.01;96028.59;2097727;28;20063;-72
2023/05/23 17:15:45;;;;;;;7.60;2.67;;;;;;;18.23;49.79;96045.81;2098419;28;20048;-72
2023/05/23 17:16:49;;;;;;;3.17;2.30;;;;;;;18.15;50.79;96053.47;2089710;28;20051;-67
2023/05/23 17:17:50;;;;;;;5.13;2.28;;;;;;;18.13;51.13;96054.53;2089670;28;20064;-63
2023/05/23 17:18:51;;;;;;;5.00;2.60;;;;;;;18.01;51.82;96051.03;2098176;28;20481;-63
2023/05/23 17:19:53;;;;;;;4.75;2.97;;;;;;;17.96;51.90;96054.03;2098178;28;20041;-63
2023/05/23 17:20:54;;;;;;;5.57;2.85;;;;;;;17.97;51.96;96050.44;2089276;28;20515;-63
2023/05/23 17:21:57;;;;;;;7.22;2.50;;;;;;;17.83;52.57;96051.47;2088653;28;20053;-63
2023/05/23 17:22:58;;;;;;;4.03;2.40;;;;;;;17.93;51.68;96058.66;2098234;28;20486;-63
2023/05/23 17:23:59;;;;;;;5.05;2.63;;;;;;;17.93;51.27;96054.22;2097262;28;20052;-63
2023/05/23 17:25:02;;;;;;;3.97;2.60;;;;;;;17.89;51.45;96051.97;2081043;28;20046;-63
2023/05/23 17:26:03;;;;;;;4.88;2.65;;;;;;;17.92;51.70;96054.38;2081392;28;20052;-63
2023/05/23 17:27:04;;;;;;;7.20;2.60;;;;;;;17.93;51.22;96054.22;2098120;28;20044;-63
2023/05/23 17:28:06;;;;;;;3.85;2.67;;;;;;;18.07;50.37;96051.41;2098221;28;20044;-63
2023/05/23 17:29:07;;;;;;;3.33;2.55;;;;;;;18.08;50.81;96060.13;2098172;28;20044;-63
2023/05/23 17:30:08;;;;;;;6.15;2.67;;;;;;;18.17;51.27;96053.31;2097368;28;20056;-62
2023/05/23 17:31:10;;;;;;;3.55;2.58;;;;;;;18.16;50.50;96055.13;2098354;28;20036;-63
2023/05/23 17:32:11;;;;;;;4.93;2.67;;;;;;;18.26;50.40;96050.00;2097972;28;20052;-63
2023/05/23 17:33:12;;;;;;;4.50;2.65;;;;;;;18.27;50.12;96052.50;2097430;28;20075;-63
2023/05/23 17:34:13;;;;;;;3.72;2.35;;;;;;;18.24;50.19;96054.53;2098081;28;20060;-62
2023/05/23 17:35:14;;;;;;;6.70;3.15;;;;;;;18.21;50.95;96058.22;2098008;28;20047;-62
2023/05/23 17:36:15;;;;;;;6.85;3.03;;;;;;;18.17;51.38;96059.41;2097378;28;20059;-62
2023/05/23 17:37:16;;;;;;;5.70;2.70;;;;;;;18.26;51.11;96060.53;2097324;28;20059;-63
2023/05/23 17:38:18;;;;;;;3.90;2.58;;;;;;;18.18;51.29;96055.84;2098009;28;20399;-63
2023/05/23 17:39:19;;;;;;;3.67;2.60;;;;;;;18.02;52.28;96069.31;2098090;28;20053;-63
2023/05/23 17:40:20;;;;;;;3.58;2.65;;;;;;;17.90;52.20;96057.09;2098326;28;20048;-62
2023/05/23 17:41:21;;;;;;;5.93;2.80;;;;;;;17.84;51.48;96066.28;2098061;28;20048;-62
2023/05/23 17:42:23;;;;;;;5.13;3.05;;;;;;;17.69;52.83;96058.69;2089038;28;20432;-62
2023/05/23 17:43:24;;;;;;;3.92;2.97;;;;;;;17.54;53.05;96060.66;2089477;28;20514;-63
2023/05/23 17:44:25;;;;;;;6.47;2.95;;;;;;;17.48;52.84;96064.59;2098125;28;20048;-62
2023/05/23 17:45:26;;;;;;;4.57;3.25;;;;;;;17.36;53.94;96055.81;2097981;28;20049;-62
2023/05/23 17:46:28;;;;;;;3.55;2.70;;;;;;;17.33;54.39;96053.41;2097967;28;20376;-62
2023/05/23 17:47:29;;;;;;;4.53;3.15;;;;;;;17.29;54.86;96058.97;2098110;28;20044;-63
2023/05/23 17:48:30;;;;;;;6.47;3.38;;;;;;;17.24;54.64;96066.34;2097904;28;20048;-63
2023/05/23 17:49:31;;;;;;;5.10;3.15;;;;;;;17.13;55.39;96064.50;2098384;28;20052;-63
2023/05/23 17:50:33;;;;;;;4.05;3.17;;;;;;;17.11;55.25;96066.44;2098122;28;20048;-63
2023/05/23 17:51:34;;;;;;;5.65;3.20;;;;;;;17.00;56.56;96061.97;2097981;28;20392;-63
2023/05/23 17:52:35;;;;;;;5.47;3.38;;;;;;;16.98;55.65;96063.84;2097507;28;20063;-62
2023/05/23 17:53:39;;;;;;;6.18;3.03;;;;;;;16.94;55.94;96057.97;2098077;28;20045;-62
2023/05/23 17:54:41;;;;;;;8.82;3.25;;;;;;;16.90;56.52;96064.38;2088816;28;20049;-62
2023/05/23 17:55:42;;;;;;;4.75;3.47;;;;;;;16.82;56.46;96065.88;2089147;28;20422;-61
2023/05/23 17:56:43;;;;;;;6.05;3.45;;;;;;;16.71;56.50;96067.44;2097768;28;20047;-63
2023/05/23 17:57:44;;;;;;;4.38;3.17;;;;;;;16.70;57.19;96072.78;2097828;28;20052;-63
2023/05/23 17:58:45;;;;;;;5.07;3.58;;;;;;;16.66;57.98;96066.94;2097983;28;20498;-63
2023/05/23 17:59:46;;;;;;;5.45;3.22;;;;;;;16.58;58.66;96068.41;2097850;28;20060;-63
2023/05/23 18:00:47;;;;;;;5.40;3.17;;;;;;;16.52;57.85;96060.03;2097933;28;20067;-63
2023/05/23 18:01:48;;;;;;;6.28;3.53;;;;;;;16.54;57.97;96068.63;2097929;28;20460;-63
2023/05/23 18:02:50;;;;;;;4.85;3.65;;;;;;;16.52;58.57;96070.53;2097902;28;20040;-63
2023/05/23 18:03:53;;;;;;;5.90;3.67;;;;;;;16.50;58.77;96072.41;2097964;28;20047;-63
2023/05/23 18:04:54;;;;;;;4.22;3.15;;;;;;;16.51;59.58;96073.25;2098007;28;20148;-64
2023/05/23 18:05:55;;;;;;;4.60;3.25;;;;;;;16.45;59.66;96074.50;2098161;28;20044;-62
2023/05/23 18:06:56;;;;;;;5.85;3.33;;;;;;;16.46;58.78;96076.16;2097889;28;20032;-61
2023/05/23 18:07:57;;;;;;;5.45;3.60;;;;;;;16.45;58.81;96077.13;2097907;28;20033;-63
2023/05/23 18:08:58;;;;;;;6.43;3.67;;;;;;;16.40;59.56;96073.97;2098128;28;20041;-63
2023/05/23 18:10:00;;;;;;;4.30;3.08;;;;;;;16.42;59.91;96079.13;2097893;28;20383;-64
2023/05/23 18:11:01;;;;;;;4.85;3.30;;;;;;;16.26;58.84;96061.84;2097933;28;20047;-63
2023/05/23 18:12:02;;;;;;;5.55;3.47;;;;;;;16.39;59.81;96072.31;2097589;28;20044;-63
2023/05/23 18:13:03;;;;;;;5.72;3.40;;;;;;;16.36;59.72;96082.16;2097685;28;20037;-63
2023/05/23 18:14:06;;;;;;;4.43;3.20;;;;;;;16.35;59.76;96075.25;2097745;28;20044;-62
2023/05/23 18:15:07;;;;;;;5.13;3.38;;;;;;;16.29;59.73;96072.09;2097730;28;20036;-62
2023/05/23 18:16:08;;;;;;;6.90;3.35;;;;;;;16.29;59.34;96079.13;2097905;28;20047;-62
2023/05/23 18:17:10;;;;;;;5.20;3.60;;;;;;;16.24;60.33;96084.69;2097994;28;20514;-62
2023/05/23 18:18:11;;;;;;;4.82;3.85;;;;;;;16.14;60.53;96064.44;2097187;28;20052;-62
2023/05/23 18:19:12;;;;;;;5.40;3.40;;;;;;;16.16;60.63;96083.53;2097934;28;20063;-61
2023/05/23 18:20:13;;;;;;;4.38;3.42;;;;;;;16.14;59.90;96085.41;2098009;28;20464;-62
2023/05/23 18:21:14;;;;;;;6.40;3.63;;;;;;;16.14;59.41;96080.16;2097933;28;20053;-62
2023/05/23 18:22:15;;;;;;;4.55;3.42;;;;;;;16.14;59.63;96082.78;2097997;28;20154;-62
2023/05/23 18:23:17;;;;;;;6.28;4.15;;;;;;;16.08;59.34;96081.44;2097894;28;20053;-61
2023/05/23 18:24:18;;;;;;;5.00;3.60;;;;;;;16.10;60.56;96082.16;2098101;28;20044;-62
2023/05/23 18:25:21;;;;;;;5.38;3.35;;;;;;;16.02;60.56;96071.38;2097916;28;20044;-62
2023/05/23 18:26:22;;;;;;;5.53;3.53;;;;;;;16.05;60.89;96084.25;2097974;28;20063;-61
2023/05/23 18:27:23;;;;;;;6.75;3.85;;;;;;;15.94;60.30;96073.66;2098072;28;20484;-62
2023/05/23 18:28:25;;;;;;;5.63;3.58;;;;;;;15.99;60.36;96082.91;2097369;28;20040;-62
2023/05/23 18:29:26;;;;;;;6.22;4.05;;;;;;;15.96;60.77;96087.47;2097058;28;20056;-62
2023/05/23 18:30:27;;;;;;;7.25;3.83;;;;;;;15.83;61.85;96074.41;2097637;28;20041;-62
2023/05/23 18:31:28;;;;;;;6.10;3.47;;;;;;;15.88;61.63;96088.84;2098034;28;20455;-62
2023/05/23 18:32:30;;;;;;;5.63;4.55;;;;;;;15.76;62.15;96075.72;2097520;28;20052;-63
2023/05/23 18:33:31;;;;;;;6.75;3.95;;;;;;;15.77;61.74;96093.97;2098105;28;20093;-63
2023/05/23 18:34:32;;;;;;;6.93;4.13;;;;;;;15.73;62.00;96089.03;2097819;28;20400;-63
2023/05/23 18:35:33;;;;;;;5.38;4.13;;;;;;;15.66;62.11;96084.19;2097937;28;20041;-62
2023/05/23 18:36:35;;;;;;;5.88;4.13;;;;;;;15.62;62.69;96085.31;2097455;28;20052;-64
2023/05/23 18:37:37;;;;;;;6.68;3.88;;;;;;;15.64;62.36;96091.28;2097659;28;20055;-63
2023/05/23 18:38:39;;;;;;;6.65;4.68;;;;;;;15.62;62.09;96087.09;2088754;28;20048;-63
2023/05/23 18:39:40;;;;;;;6.70;4.30;;;;;;;15.57;61.79;96081.31;2088940;28;20048;-61
2023/05/23 18:40:41;;;;;;;6.00;4.10;;;;;;;15.51;62.35;96087.78;2097751;28;20053;-63
2023/05/23 18:41:42;;;;;;;7.45;3.80;;;;;;;15.50;62.57;96085.25;2097724;28;20044;-63
2023/05/23 18:42:44;;;;;;;5.07;4.32;;;;;;;15.48;62.63;96093.22;2097934;28;20056;-63
2023/05/23 18:43:45;;;;;;;5.90;3.75;;;;;;;15.44;63.16;96083.88;2097740;28;20044;-63
2023/05/23 18:44:46;;;;;;;5.68;4.53;;;;;;;15.44;62.93;96091.75;2097726;28;20045;-63
2023/05/23 18:45:47;;;;;;;7.68;4.72;;;;;;;15.41;62.88;96092.78;2098017;28;20396;-63
2023/05/23 18:46:48;;;;;;;5.65;4.30;;;;;;;15.36;62.90;96100.09;2097140;28;20048;-62
2023/05/23 18:47:49;;;;;;;7.70;4.63;;;;;;;15.31;62.83;96088.25;2097732;28;20051;-63
2023/05/23 18:48:51;;;;;;;5.45;3.90;;;;;;;15.25;63.49;96096.50;2097881;28;20464;-63
2023/05/23 18:49:52;;;;;;;8.07;4.22;;;;;;;15.25;63.53;96099.09;2098035;28;20032;-63
2023/05/23 18:50:53;;;;;;;4.85;3.72;;;;;;;15.19;63.75;96101.19;2097779;28;20395;-63
2023/05/23 18:51:55;;;;;;;9.80;4.30;;;;;;;15.17;63.49;96102.22;2097950;28;20044;-63
2023/05/23 18:52:56;;;;;;;6.78;4.95;;;;;;;15.08;63.80;96103.66;2097260;28;20052;-63
2023/05/23 18:53:57;;;;;;;6.95;4.63;;;;;;;15.06;64.62;96108.13;2097827;28;20377;-63
2023/05/23 18:54:58;;;;;;;5.43;4.18;;;;;;;15.04;64.42;96110.00;2097716;28;20044;-63
2023/05/23 18:55:59;;;;;;;5.93;4.40;;;;;;;14.96;64.42;96107.03;2097888;28;20040;-63
2023/05/23 18:57:02;;;;;;;10.27;4.40;;;;;;;14.89;65.04;96117.03;2097882;28;20044;-63
2023/05/23 18:58:03;;;;;;;6.97;4.65;;;;;;;14.89;65.41;96111.81;2097039;28;20052;-63
2023/05/23 18:59:04;;;;;;;6.47;4.45;;;;;;;14.84;65.62;96118.25;2097974;28;20067;-63
2023/05/23 19:00:06;;;;;;;6.25;4.35;;;;;;;14.80;65.62;96116.75;2097154;28;20123;-63
2023/05/23 19:01:07;;;;;;;8.35;4.72;;;;;;;14.74;65.42;96125.81;2097743;28;20480;-63
2023/05/23 19:02:08;;;;;;;6.55;4.57;;;;;;;14.71;65.52;96123.41;2097834;28;20476;-63
2023/05/23 19:03:09;;;;;;;6.13;4.38;;;;;;;14.64;65.69;96128.16;2097067;28;20056;-63
2023/05/23 19:04:10;;;;;;;6.72;4.75;;;;;;;14.62;66.01;96130.03;2097664;28;20033;-63
2023/05/23 19:05:11;;;;;;;6.50;4.28;;;;;;;14.58;66.43;96125.09;2097649;28;20404;-63
2023/05/23 19:06:13;;;;;;;7.35;4.25;;;;;;;14.55;66.42;96133.94;2097653;28;20033;-63